Time;durP1;ratioP1;P1;durP2;ratioP2;P2;SDS_P1;SDS_P2;PMS_P1;PMS_P2;Temp;Humidity;BMP_temperature;BMP_pressure;BME280_temperature;BME280_humidity;BME280_pressure;Samples;Min_cycle;Max_cycle;Signal;HPM_P1;HPM_P2
2022/08/07 00:02:49;;;;;;;1.10;0.32;;;18.10;54.00;;;;;;6285779;28;20080;-82
2022/08/07 00:05:51;;;;;;;0.30;0.20;;;18.00;54.40;;;;;;6284931;28;20047;-80
2022/08/07 00:08:53;;;;;;;0.52;0.40;;;17.90;54.80;;;;;;6286812;28;20068;-81
2022/08/07 00:11:55;;;;;;;0.50;0.20;;;17.80;55.50;;;;;;6284157;28;20067;-81
2022/08/07 00:14:58;;;;;;;1.10;0.25;;;17.60;55.80;;;;;;6282359;28;20056;-80
2022/08/07 00:18:00;;;;;;;1.30;0.47;;;17.50;56.30;;;;;;6282094;28;20048;-81
2022/08/07 00:21:04;;;;;;;2.35;0.47;;;17.40;56.50;;;;;;6284911;28;20045;-80
2022/08/07 00:24:06;;;;;;;1.13;0.30;;;17.40;56.80;;;;;;6278281;28;20055;-80
2022/08/07 00:27:08;;;;;;;3.65;0.60;;;17.30;57.00;;;;;;6286968;28;20049;-80
2022/08/07 00:30:12;;;;;;;1.02;0.25;;;17.20;57.20;;;;;;6300661;28;20391;-80
2022/08/07 00:33:14;;;;;;;3.72;0.35;;;17.20;57.50;;;;;;6289627;28;20120;-80
2022/08/07 00:36:16;;;;;;;1.83;0.40;;;17.10;58.00;;;;;;6286874;28;20057;-80
2022/08/07 00:39:18;;;;;;;0.77;0.20;;;17.10;58.30;;;;;;6285560;28;20385;-80
2022/08/07 00:42:21;;;;;;;3.00;0.68;;;17.10;58.60;;;;;;6286298;28;20049;-81
2022/08/07 00:45:24;;;;;;;0.57;0.40;;;17.10;58.60;;;;;;6285287;28;20048;-80
2022/08/07 00:48:26;;;;;;;2.60;0.30;;;17.10;58.60;;;;;;6284836;28;20044;-80
2022/08/07 00:51:28;;;;;;;0.65;0.38;;;17.10;58.90;;;;;;6283963;28;20053;-80
2022/08/07 00:54:31;;;;;;;1.90;0.30;;;17.00;58.70;;;;;;6283777;28;20049;-80
2022/08/07 00:57:33;;;;;;;5.35;0.65;;;17.00;58.90;;;;;;6282489;28;20052;-80
2022/08/07 01:00:36;;;;;;;0.63;0.35;;;17.00;58.90;;;;;;6280746;28;20048;-80
2022/08/07 01:03:38;;;;;;;1.52;0.60;;;17.00;59.00;;;;;;6280460;28;20128;-80
2022/08/07 01:06:39;;;;;;;4.28;0.93;;;16.90;59.30;;;;;;6284424;28;20049;-81
2022/08/07 01:09:42;;;;;;;1.70;1.15;;;16.80;59.70;;;;;;6284676;28;20057;-81
2022/08/07 01:12:44;;;;;;;2.50;1.05;;;16.80;59.70;;;;;;6284529;28;20055;-80
2022/08/07 01:15:49;;;;;;;1.23;0.40;;;16.80;59.70;;;;;;6282941;28;20480;-80
2022/08/07 01:18:51;;;;;;;1.33;0.45;;;16.80;59.50;;;;;;6285091;28;20052;-79
2022/08/07 01:21:55;;;;;;;3.90;0.77;;;16.80;59.60;;;;;;6285749;28;20140;-80
2022/08/07 01:24:57;;;;;;;2.72;0.38;;;16.70;59.70;;;;;;6285775;28;20048;-80
2022/08/07 01:27:59;;;;;;;4.40;0.68;;;16.80;59.80;;;;;;6285476;28;20051;-80
2022/08/07 01:31:02;;;;;;;2.67;0.52;;;16.80;59.80;;;;;;6285001;28;20063;-79
2022/08/07 01:34:04;;;;;;;0.35;0.30;;;16.80;59.70;;;;;;6283739;28;20047;-80
2022/08/07 01:37:07;;;;;;;2.53;0.30;;;16.90;59.60;;;;;;6283413;28;20503;-79
2022/08/07 01:40:10;;;;;;;1.65;0.40;;;16.90;59.30;;;;;;6280234;28;20037;-81
2022/08/07 01:43:12;;;;;;;3.03;0.60;;;17.00;59.20;;;;;;6280116;28;20543;-80
2022/08/07 01:46:14;;;;;;;2.53;0.50;;;17.00;59.10;;;;;;6279879;28;20052;-80
2022/08/07 01:49:16;;;;;;;3.33;0.55;;;17.00;59.10;;;;;;6279251;28;20045;-80
2022/08/07 01:52:21;;;;;;;7.38;1.88;;;17.10;59.00;;;;;;6279599;28;20055;-79
2022/08/07 01:55:26;;;;;;;0.90;0.30;;;17.10;59.00;;;;;;6278432;28;20516;-81
2022/08/07 01:58:33;;;;;;;0.57;0.17;;;17.00;58.90;;;;;;6278404;28;20619;-79
2022/08/07 02:01:42;;;;;;;0.80;0.30;;;17.00;59.00;;;;;;6278339;28;20060;-80
2022/08/07 02:04:51;;;;;;;1.15;0.20;;;17.00;59.00;;;;;;6277314;28;20500;-81
2022/08/07 02:07:56;;;;;;;1.70;0.28;;;17.00;59.00;;;;;;6277036;28;20041;-80
2022/08/07 02:10:59;;;;;;;1.45;0.40;;;17.00;59.00;;;;;;6277420;28;20055;-81
2022/08/07 02:14:03;;;;;;;0.28;0.17;;;17.00;58.90;;;;;;6276229;28;20538;-81
2022/08/07 02:17:06;;;;;;;1.35;0.32;;;17.00;58.90;;;;;;6279368;28;20045;-81
2022/08/07 02:20:10;;;;;;;1.80;0.28;;;16.90;58.80;;;;;;6283109;28;20052;-79
2022/08/07 02:23:14;;;;;;;0.40;0.17;;;16.90;59.10;;;;;;6287023;28;20052;-79
2022/08/07 02:26:17;;;;;;;1.55;0.30;;;16.90;59.10;;;;;;6287349;28;20055;-79
2022/08/07 02:29:20;;;;;;;1.52;0.43;;;16.80;59.30;;;;;;6286418;28;20045;-80
2022/08/07 02:32:23;;;;;;;3.00;0.10;;;16.70;59.40;;;;;;6286930;28;20067;-79
2022/08/07 02:35:27;;;;;;;0.30;0.20;;;16.70;59.60;;;;;;6287128;28;20053;-80
2022/08/07 02:38:35;;;;;;;1.35;0.40;;;16.70;59.60;;;;;;6286809;28;20047;-80
2022/08/07 02:41:37;;;;;;;1.10;0.38;;;16.70;59.50;;;;;;6286526;28;20063;-79
2022/08/07 02:44:41;;;;;;;3.67;0.68;;;16.70;59.70;;;;;;6285580;28;20051;-78
2022/08/07 02:47:42;;;;;;;1.30;0.30;;;16.60;59.80;;;;;;6285245;28;20045;-78
2022/08/07 02:50:47;;;;;;;2.08;0.35;;;16.60;60.10;;;;;;6286376;28;20070;-79
2022/08/07 02:53:53;;;;;;;1.70;0.35;;;16.50;60.20;;;;;;6285165;28;20049;-79
2022/08/07 02:56:59;;;;;;;3.58;0.38;;;16.50;60.40;;;;;;6285883;28;20049;-79
2022/08/07 03:00:02;;;;;;;1.38;0.40;;;16.50;60.50;;;;;;6285124;28;20045;-79
2022/08/07 03:03:07;;;;;;;0.20;0.20;;;16.50;60.50;;;;;;6285719;28;20503;-79
2022/08/07 03:06:10;;;;;;;0.40;0.10;;;16.50;60.50;;;;;;6284805;28;20045;-79
2022/08/07 03:09:14;;;;;;;0.85;0.40;;;16.40;60.60;;;;;;6285123;28;20047;-79
2022/08/07 03:12:16;;;;;;;0.17;0.10;;;16.40;60.80;;;;;;6284084;28;20072;-79
2022/08/07 03:15:19;;;;;;;3.38;0.30;;;16.40;60.60;;;;;;6285019;28;20045;-79
2022/08/07 03:18:21;;;;;;;0.93;0.20;;;16.30;60.80;;;;;;6284301;28;20060;-79
2022/08/07 03:21:23;;;;;;;0.38;0.20;;;16.30;60.70;;;;;;6282973;28;20123;-79
2022/08/07 03:24:27;;;;;;;1.00;0.40;;;16.30;60.90;;;;;;6280621;28;20059;-80
2022/08/07 03:27:29;;;;;;;0.30;0.25;;;16.20;61.80;;;;;;6280420;28;20053;-79
2022/08/07 03:30:32;;;;;;;1.35;0.30;;;16.20;61.40;;;;;;6283838;28;20464;-78
2022/08/07 03:33:35;;;;;;;0.82;0.30;;;16.10;61.40;;;;;;6280923;28;20049;-79
2022/08/07 03:36:40;;;;;;;0.65;0.20;;;16.10;61.50;;;;;;6280477;28;20088;-79
2022/08/07 03:39:46;;;;;;;0.63;0.22;;;16.20;61.30;;;;;;6279553;28;20041;-79
2022/08/07 03:42:48;;;;;;;0.77;0.25;;;16.30;61.10;;;;;;6283394;28;20053;-80
2022/08/07 03:45:50;;;;;;;0.45;0.32;;;16.30;61.00;;;;;;6282537;28;20052;-79
2022/08/07 03:48:52;;;;;;;0.95;0.20;;;16.30;60.80;;;;;;6279867;28;20045;-79
2022/08/07 03:51:56;;;;;;;0.82;0.30;;;16.40;60.90;;;;;;6279802;28;20047;-80
2022/08/07 03:55:00;;;;;;;0.50;0.20;;;16.40;60.50;;;;;;6279485;28;20060;-79
2022/08/07 03:58:02;;;;;;;0.70;0.40;;;16.40;60.80;;;;;;6278140;28;20045;-79
2022/08/07 04:01:05;;;;;;;1.73;0.40;;;16.40;60.70;;;;;;6278102;28;20052;-80
2022/08/07 04:04:07;;;;;;;2.28;0.35;;;16.40;60.70;;;;;;6278157;28;20064;-79
2022/08/07 04:07:08;;;;;;;2.53;0.30;;;16.40;60.60;;;;;;6278297;28;20049;-79
2022/08/07 04:10:12;;;;;;;1.25;0.43;;;16.40;60.70;;;;;;6279719;28;20427;-80
2022/08/07 04:13:15;;;;;;;1.20;0.50;;;16.40;60.90;;;;;;6282439;28;20061;-80
2022/08/07 04:16:17;;;;;;;0.32;0.30;;;16.40;61.00;;;;;;6281308;28;20056;-80
2022/08/07 04:19:19;;;;;;;1.55;0.35;;;16.40;61.00;;;;;;6279501;28;20049;-79
2022/08/07 04:22:22;;;;;;;1.15;0.38;;;16.40;61.10;;;;;;6279747;28;20049;-79
2022/08/07 04:25:26;;;;;;;2.30;0.20;;;16.40;61.00;;;;;;6281500;28;20419;-78
2022/08/07 04:28:28;;;;;;;2.55;0.40;;;16.40;61.00;;;;;;6273099;28;20040;-78
2022/08/07 04:31:30;;;;;;;1.52;0.30;;;16.40;61.10;;;;;;6273443;28;20049;-78
2022/08/07 04:34:32;;;;;;;1.15;0.30;;;16.40;61.00;;;;;;6274437;28;20469;-79
2022/08/07 04:37:35;;;;;;;1.08;0.40;;;16.40;61.00;;;;;;6273382;28;20059;-79
2022/08/07 04:40:41;;;;;;;0.60;0.25;;;16.50;61.00;;;;;;6273963;28;20044;-79
2022/08/07 04:43:45;;;;;;;2.10;0.30;;;16.50;61.00;;;;;;6274608;28;20041;-78
2022/08/07 04:46:56;;;;;;;0.68;0.57;;;16.60;60.90;;;;;;6275738;28;20059;-78
2022/08/07 04:50:05;;;;;;;1.17;0.40;;;16.60;60.80;;;;;;6273904;28;20051;-78
2022/08/07 04:53:12;;;;;;;2.75;0.43;;;16.70;60.70;;;;;;6273561;28;20527;-79
2022/08/07 04:56:24;;;;;;;0.80;0.40;;;17.00;60.10;;;;;;6273257;28;20049;-78
2022/08/07 04:59:33;;;;;;;0.95;0.40;;;17.60;58.10;;;;;;6273237;28;20067;-78
2022/08/07 05:02:44;;;;;;;2.22;0.40;;;18.10;56.70;;;;;;6272930;28;20072;-79
2022/08/07 05:05:53;;;;;;;3.03;0.38;;;17.80;57.30;;;;;;6274215;28;20049;-78
2022/08/07 05:09:01;;;;;;;0.38;0.28;;;17.70;57.80;;;;;;6274139;28;20548;-78
2022/08/07 05:12:09;;;;;;;1.00;0.40;;;17.70;58.10;;;;;;6274387;28;20409;-79
2022/08/07 05:15:16;;;;;;;1.55;0.30;;;17.70;58.50;;;;;;6274913;28;20419;-78
2022/08/07 05:18:20;;;;;;;0.75;0.60;;;17.80;57.70;;;;;;6272501;28;20052;-79
2022/08/07 05:21:26;;;;;;;0.63;0.20;;;18.00;57.20;;;;;;6270220;28;20049;-79
2022/08/07 05:24:30;;;;;;;1.08;0.40;;;18.10;57.00;;;;;;6271748;28;20053;-79
2022/08/07 05:27:33;;;;;;;1.85;0.40;;;18.30;56.50;;;;;;6271413;28;20053;-79
2022/08/07 05:30:37;;;;;;;0.52;0.30;;;18.60;56.00;;;;;;6273291;28;20080;-79
2022/08/07 05:33:39;;;;;;;2.30;0.30;;;19.10;54.30;;;;;;6287596;23;20495;-76
2022/08/07 05:36:44;;;;;;;2.00;0.50;;;19.20;54.00;;;;;;6271032;28;20060;-77
2022/08/07 05:39:47;;;;;;;1.75;0.25;;;19.30;53.80;;;;;;6271004;28;20051;-77
2022/08/07 05:42:50;;;;;;;3.40;0.40;;;19.80;53.10;;;;;;6271269;28;20722;-77
2022/08/07 05:45:52;;;;;;;1.85;0.32;;;21.20;50.40;;;;;;6271504;28;20045;-77
2022/08/07 05:48:54;;;;;;;1.75;0.30;;;23.40;45.70;;;;;;6271188;28;20037;-77
2022/08/07 05:51:55;;;;;;;2.08;0.40;;;25.00;42.20;;;;;;6276866;28;20419;-76
2022/08/07 05:54:57;;;;;;;3.17;0.28;;;25.90;39.90;;;;;;6277570;28;20056;-77
2022/08/07 05:58:02;;;;;;;1.23;0.22;;;26.40;38.90;;;;;;6277239;28;20045;-77
2022/08/07 06:01:06;;;;;;;1.42;0.63;;;26.50;38.30;;;;;;6276604;28;20045;-77
2022/08/07 06:04:08;;;;;;;0.65;0.20;;;26.00;38.40;;;;;;6277378;28;20052;-77
2022/08/07 06:07:10;;;;;;;0.75;0.25;;;25.20;39.80;;;;;;6277021;28;20045;-76
2022/08/07 06:10:12;;;;;;;5.40;0.45;;;24.80;40.50;;;;;;6277858;28;20182;-78
2022/08/07 06:13:15;;;;;;;0.08;0.05;;;24.80;40.00;;;;;;6272859;28;20052;-78
2022/08/07 06:16:19;;;;;;;1.90;0.30;;;24.50;40.70;;;;;;6253061;28;20653;-77
2022/08/07 06:19:22;;;;;;;0.75;0.40;;;24.30;40.80;;;;;;6251394;28;20076;-78
2022/08/07 06:22:24;;;;;;;1.77;0.30;;;24.30;40.70;;;;;;6246825;28;20058;-77
2022/08/07 06:25:26;;;;;;;2.00;0.20;;;25.00;41.00;;;;;;6227078;28;20052;-77
2022/08/07 06:28:30;;;;;;;1.55;0.47;;;25.80;38.90;;;;;;6227139;28;20056;-76
2022/08/07 06:31:32;;;;;;;0.93;0.10;;;26.90;37.70;;;;;;6227536;28;20046;-77
2022/08/07 06:34:33;;;;;;;0.38;0.10;;;27.80;35.90;;;;;;6226794;28;20050;-77
2022/08/07 06:37:35;;;;;;;1.05;0.32;;;28.10;35.20;;;;;;6226662;28;20500;-77
2022/08/07 06:40:42;;;;;;;11.73;0.77;;;28.40;35.20;;;;;;6228211;28;20156;-77
2022/08/07 06:43:46;;;;;;;0.55;0.32;;;29.10;34.60;;;;;;6228540;28;20053;-77
2022/08/07 06:46:48;;;;;;;0.32;0.17;;;29.60;33.80;;;;;;6231328;28;20046;-79
2022/08/07 06:49:50;;;;;;;1.63;0.57;;;29.20;34.60;;;;;;6196592;28;20060;-78
2022/08/07 06:52:55;;;;;;;1.58;0.30;;;28.50;35.30;;;;;;6259040;28;20049;-78
2022/08/07 06:55:57;;;;;;;0.68;0.22;;;27.50;36.60;;;;;;6259423;28;20041;-79
2022/08/07 06:59:01;;;;;;;3.28;0.95;;;26.60;38.30;;;;;;6255957;28;20056;-78
2022/08/07 07:02:05;;;;;;;2.05;0.38;;;25.50;39.30;;;;;;6272613;28;20456;-79
2022/08/07 07:05:08;;;;;;;3.80;0.35;;;24.80;40.70;;;;;;6275046;28;20516;-79
2022/08/07 07:08:11;;;;;;;1.02;0.38;;;24.40;41.80;;;;;;6255510;28;20045;-78
2022/08/07 07:11:13;;;;;;;2.22;0.50;;;24.20;42.30;;;;;;6256198;28;20064;-79
2022/08/07 07:14:17;;;;;;;1.60;0.73;;;24.20;42.80;;;;;;6253690;28;20045;-78
2022/08/07 07:17:26;;;;;;;4.88;0.52;;;23.90;43.30;;;;;;6253455;28;20049;-78
2022/08/07 07:20:34;;;;;;;2.42;0.85;;;23.60;44.40;;;;;;6252166;28;20555;-78
2022/08/07 07:23:36;;;;;;;0.32;0.20;;;23.50;45.20;;;;;;6259514;28;20057;-79
2022/08/07 07:26:40;;;;;;;1.30;0.40;;;23.50;45.40;;;;;;6253162;28;20053;-78
2022/08/07 07:29:49;;;;;;;1.52;0.50;;;23.80;45.30;;;;;;6252710;28;20045;-79
2022/08/07 07:32:52;;;;;;;1.27;0.50;;;23.90;45.10;;;;;;6253943;28;20053;-79
2022/08/07 07:35:57;;;;;;;1.88;0.28;;;24.10;44.80;;;;;;6252954;28;20662;-80
2022/08/07 07:39:01;;;;;;;1.58;1.30;;;24.30;44.30;;;;;;6253173;28;20049;-79
2022/08/07 07:42:03;;;;;;;0.63;0.40;;;24.70;44.30;;;;;;6253415;28;20054;-80
2022/08/07 07:45:08;;;;;;;0.50;0.40;;;24.60;44.40;;;;;;6253357;28;20045;-81
2022/08/07 07:48:12;;;;;;;2.28;0.57;;;24.60;44.60;;;;;;6252913;28;20048;-80
2022/08/07 07:51:17;;;;;;;1.05;0.43;;;24.90;45.00;;;;;;6256052;28;20053;-79
2022/08/07 07:54:20;;;;;;;3.25;0.30;;;25.30;43.70;;;;;;6269500;28;20059;-79
2022/08/07 07:57:24;;;;;;;2.55;1.38;;;25.60;43.70;;;;;;6277723;28;20108;-80
2022/08/07 08:00:27;;;;;;;3.38;0.65;;;25.50;43.30;;;;;;6278103;28;20522;-80
2022/08/07 08:03:31;;;;;;;0.90;0.50;;;25.50;43.50;;;;;;6277598;28;20056;-80
2022/08/07 08:06:34;;;;;;;1.27;0.80;;;25.60;43.70;;;;;;6279805;28;20059;-80
2022/08/07 08:09:38;;;;;;;3.58;0.55;;;25.90;43.70;;;;;;6277408;28;20048;-79
2022/08/07 08:12:41;;;;;;;2.40;0.52;;;26.20;43.40;;;;;;6276595;28;20052;-78
2022/08/07 08:15:47;;;;;;;3.55;0.93;;;26.60;43.20;;;;;;6280471;28;20051;-79
2022/08/07 08:18:54;;;;;;;5.28;0.85;;;26.60;42.80;;;;;;6283498;28;20166;-79
2022/08/07 08:28:42;;;;;;;3.70;0.57;;;26.90;42.50;;;;;;6257033;28;20412;-79
2022/08/07 08:31:48;;;;;;;2.15;0.75;;;26.70;43.00;;;;;;6264698;28;20041;-79
2022/08/07 08:34:52;;;;;;;4.45;0.50;;;26.60;43.50;;;;;;6254616;28;20090;-79
2022/08/07 08:37:59;;;;;;;1.33;0.60;;;26.70;43.40;;;;;;6251444;28;20041;-80
2022/08/07 08:41:07;;;;;;;3.88;0.90;;;26.80;43.10;;;;;;6251714;28;20049;-80
2022/08/07 08:44:19;;;;;;;2.80;0.40;;;27.10;42.90;;;;;;6252333;28;20045;-80
2022/08/07 08:47:27;;;;;;;0.70;0.43;;;27.30;42.60;;;;;;6251811;28;20059;-80
2022/08/07 08:50:34;;;;;;;2.65;0.57;;;27.40;42.70;;;;;;6251509;28;20055;-80
2022/08/07 08:53:44;;;;;;;1.00;0.55;;;27.50;42.50;;;;;;6265748;28;20037;-80
2022/08/07 08:56:51;;;;;;;0.98;0.52;;;27.60;42.40;;;;;;6276238;28;20041;-80
2022/08/07 09:00:01;;;;;;;1.52;0.90;;;27.40;42.70;;;;;;6260151;28;20741;-80
2022/08/07 09:03:14;;;;;;;1.40;0.70;;;27.70;42.70;;;;;;6252901;28;20436;-80
2022/08/07 09:06:27;;;;;;;1.67;0.43;;;27.90;42.40;;;;;;6253064;28;20514;-81
2022/08/07 09:09:53;;;;;;;1.20;0.45;;;28.20;42.00;;;;;;6251263;28;20045;-79
2022/08/07 09:13:08;;;;;;;0.98;0.30;;;28.30;41.50;;;;;;6250709;28;20046;-80
2022/08/07 09:16:19;;;;;;;1.17;0.70;;;28.50;41.10;;;;;;6250386;28;20516;-80
2022/08/07 09:19:34;;;;;;;1.58;0.60;;;28.50;41.50;;;;;;6251077;28;20053;-79
2022/08/07 09:22:50;;;;;;;3.63;0.50;;;28.60;40.90;;;;;;6258471;28;20041;-81
2022/08/07 09:26:07;;;;;;;1.83;0.63;;;28.70;41.10;;;;;;6248893;28;20060;-81
2022/08/07 09:29:17;;;;;;;1.67;0.65;;;29.10;40.50;;;;;;6250728;28;20065;-79
2022/08/07 09:32:30;;;;;;;6.82;0.85;;;29.00;40.20;;;;;;6249843;28;20049;-80
2022/08/07 09:35:42;;;;;;;0.80;0.45;;;28.80;40.20;;;;;;6263362;28;20041;-80
2022/08/07 09:38:54;;;;;;;2.70;0.60;;;28.70;40.30;;;;;;6251771;28;20045;-80
2022/08/07 09:42:04;;;;;;;0.75;0.50;;;28.80;39.30;;;;;;6251259;28;20059;-79
2022/08/07 09:45:14;;;;;;;2.78;0.50;;;28.90;39.50;;;;;;6250358;28;20463;-80
2022/08/07 09:48:34;;;;;;;1.95;0.40;;;29.30;38.30;;;;;;6249424;28;20045;-79
2022/08/07 09:51:57;;;;;;;1.05;0.55;;;29.60;37.50;;;;;;6253919;28;20136;-79
2022/08/07 09:55:08;;;;;;;2.70;0.55;;;29.50;37.50;;;;;;6263356;28;20044;-80
2022/08/07 09:58:46;;;;;;;1.08;0.82;;;29.60;37.70;;;;;;6251951;28;20048;-79
2022/08/07 10:02:05;;;;;;;1.25;0.40;;;30.10;36.70;;;;;;6242706;28;20048;-79
2022/08/07 10:05:40;;;;;;;1.58;0.50;;;30.60;36.20;;;;;;6250647;28;20045;-82
2022/08/07 10:09:10;;;;;;;1.67;0.70;;;31.40;35.00;;;;;;6249539;28;20121;-79
2022/08/07 10:12:31;;;;;;;1.17;0.73;;;31.40;34.20;;;;;;6248533;28;20052;-80
2022/08/07 10:15:57;;;;;;;3.30;0.55;;;31.40;34.10;;;;;;6248418;28;20171;-80
2022/08/07 10:19:26;;;;;;;4.10;2.42;;;31.40;33.80;;;;;;6248930;28;20049;-80
2022/08/07 10:22:48;;;;;;;7.15;1.55;;;31.10;33.30;;;;;;6255501;28;20497;-80
2022/08/07 10:26:01;;;;;;;2.10;0.25;;;30.70;32.60;;;;;;6256073;28;20087;-79
2022/08/07 10:29:18;;;;;;;2.53;0.35;;;30.50;32.30;;;;;;6225380;28;20533;-79
2022/08/07 10:32:33;;;;;;;4.47;0.28;;;30.00;32.90;;;;;;6224792;28;20046;-79
2022/08/07 10:35:49;;;;;;;0.80;0.32;;;29.90;33.20;;;;;;6226353;28;20050;-79
2022/08/07 10:38:58;;;;;;;0.10;0.10;;;29.80;32.90;;;;;;6230959;28;20056;-78
2022/08/07 10:42:19;;;;;;;2.80;0.50;;;29.80;33.20;;;;;;6230047;28;20054;-79
2022/08/07 10:45:26;;;;;;;0.80;0.40;;;30.10;32.90;;;;;;6230645;28;20050;-79
2022/08/07 10:48:36;;;;;;;0.70;0.35;;;30.30;32.80;;;;;;6229666;28;20058;-78
2022/08/07 10:51:48;;;;;;;0.40;0.25;;;30.50;32.30;;;;;;6245813;28;20044;-79
2022/08/07 10:54:57;;;;;;;0.43;0.20;;;31.00;31.60;;;;;;6272629;28;20049;-79
2022/08/07 10:58:13;;;;;;;1.45;0.20;;;30.90;31.70;;;;;;6261519;28;20398;-79
2022/08/07 11:01:29;;;;;;;0.65;0.30;;;30.90;31.70;;;;;;6256876;28;20041;-79
2022/08/07 11:04:52;;;;;;;0.65;0.20;;;30.90;31.40;;;;;;6256351;28;20052;-79
2022/08/07 11:08:06;;;;;;;5.05;1.85;;;31.10;31.30;;;;;;6254406;28;20046;-79
2022/08/07 11:11:13;;;;;;;5.68;2.17;;;31.70;31.30;;;;;;6256379;28;20045;-79
2022/08/07 11:14:23;;;;;;;2.30;0.30;;;32.30;30.80;;;;;;6255518;28;20056;-78
2022/08/07 11:17:32;;;;;;;1.17;0.20;;;32.70;30.20;;;;;;6253554;28;20427;-78
2022/08/07 11:20:51;;;;;;;6.15;0.30;;;32.30;30.10;;;;;;6253392;28;20076;-78
2022/08/07 11:23:57;;;;;;;4.32;0.77;;;31.80;31.00;;;;;;6269553;28;20055;-80
2022/08/07 11:27:07;;;;;;;1.30;0.28;;;31.90;30.50;;;;;;6260845;28;20704;-78
2022/08/07 11:30:14;;;;;;;1.75;0.15;;;32.30;30.80;;;;;;6228818;28;20049;-79
2022/08/07 11:36:40;;;;;;;2.83;0.25;;;32.30;30.00;;;;;;6298401;28;20111;-78
2022/08/07 11:39:54;;;;;;;0.73;0.30;;;32.00;30.30;;;;;;6299662;28;20040;-78
2022/08/07 11:43:00;;;;;;;1.17;0.30;;;32.10;30.60;;;;;;6302254;28;20048;-77
2022/08/07 11:46:20;;;;;;;0.77;0.20;;;32.10;30.30;;;;;;6321084;28;20052;-77
2022/08/07 11:49:43;;;;;;;0.70;0.17;;;32.70;29.70;;;;;;6322462;28;20297;-78
2022/08/07 11:53:00;;;;;;;0.20;0.10;;;33.10;29.20;;;;;;6316344;28;20487;-78
2022/08/07 11:56:17;;;;;;;0.38;0.10;;;32.90;29.50;;;;;;6298252;28;20050;-77
2022/08/07 11:59:37;;;;;;;3.40;0.38;;;33.30;29.30;;;;;;6300197;28;20052;-77
2022/08/07 12:03:13;;;;;;;0.68;0.20;;;33.10;28.60;;;;;;6298590;28;20052;-77
2022/08/07 12:06:31;;;;;;;1.00;0.22;;;32.50;29.10;;;;;;6297832;28;20054;-77
2022/08/07 12:09:36;;;;;;;0.38;0.10;;;32.50;29.00;;;;;;6297501;28;20051;-78
2022/08/07 12:12:42;;;;;;;2.63;0.17;;;32.90;28.90;;;;;;6297990;28;20047;-77
2022/08/07 12:15:55;;;;;;;1.55;0.20;;;33.40;28.80;;;;;;6298465;28;20415;-77
2022/08/07 12:19:11;;;;;;;0.20;0.10;;;33.70;28.20;;;;;;6297551;28;20534;-78
2022/08/07 12:22:34;;;;;;;0.70;0.32;;;33.10;28.20;;;;;;6310563;28;20044;-78
2022/08/07 12:25:54;;;;;;;0.68;0.20;;;32.90;28.60;;;;;;6319588;28;20051;-77
2022/08/07 12:29:03;;;;;;;1.25;0.15;;;33.00;28.40;;;;;;6310128;28;20040;-77
2022/08/07 12:32:14;;;;;;;3.50;0.20;;;33.30;28.00;;;;;;6322939;28;20044;-78
2022/08/07 12:35:19;;;;;;;0.60;0.20;;;33.60;27.80;;;;;;6323281;28;20102;-78
2022/08/07 12:38:22;;;;;;;0.50;0.10;;;33.20;28.00;;;;;;6322427;28;20104;-77
2022/08/07 12:41:26;;;;;;;1.80;0.20;;;33.40;28.10;;;;;;6322239;28;20055;-77
2022/08/07 12:44:29;;;;;;;0.50;0.10;;;33.50;27.70;;;;;;6322576;28;20044;-77
2022/08/07 12:47:38;;;;;;;2.60;0.20;;;33.10;27.70;;;;;;6321581;28;20054;-77
2022/08/07 12:50:48;;;;;;;2.13;0.50;;;32.60;27.90;;;;;;6322986;28;20139;-77
2022/08/07 12:53:57;;;;;;;1.00;0.15;;;32.50;28.20;;;;;;6314806;28;20043;-77
2022/08/07 12:57:01;;;;;;;1.08;0.13;;;33.10;27.80;;;;;;6319324;28;20048;-77
2022/08/07 13:00:06;;;;;;;0.08;0.00;;;33.70;27.50;;;;;;6322179;28;20051;-77
2022/08/07 13:03:26;;;;;;;0.20;0.10;;;33.80;27.20;;;;;;6314682;28;20131;-78
2022/08/07 13:06:56;;;;;;;0.88;0.10;;;33.50;27.20;;;;;;6297133;28;20052;-77
2022/08/07 13:10:20;;;;;;;0.68;0.10;;;33.70;27.10;;;;;;6296940;28;20044;-77
2022/08/07 13:13:34;;;;;;;0.52;0.20;;;33.90;27.00;;;;;;6297946;28;20041;-78
2022/08/07 13:16:44;;;;;;;3.83;0.20;;;34.20;27.20;;;;;;6296498;28;20047;-77
2022/08/07 13:19:53;;;;;;;3.00;0.20;;;34.70;26.90;;;;;;6298085;28;20040;-78
2022/08/07 13:23:04;;;;;;;4.47;0.10;;;35.00;26.80;;;;;;6310149;28;20048;-78
2022/08/07 13:26:13;;;;;;;0.22;0.20;;;35.00;26.50;;;;;;6322967;28;20533;-78
2022/08/07 13:29:20;;;;;;;0.20;0.00;;;35.10;26.40;;;;;;6307158;28;20047;-78
2022/08/07 13:32:28;;;;;;;0.28;0.10;;;35.00;26.20;;;;;;6296681;28;20041;-78
2022/08/07 13:35:36;;;;;;;0.10;0.10;;;34.80;26.20;;;;;;6271157;28;20056;-77
2022/08/07 13:38:46;;;;;;;1.17;0.20;;;33.90;26.50;;;;;;6296857;28;20048;-78
2022/08/07 13:41:52;;;;;;;0.30;0.20;;;33.40;27.10;;;;;;6296599;28;20381;-77
2022/08/07 13:44:56;;;;;;;1.15;0.05;;;33.20;26.90;;;;;;6296494;28;20538;-77
2022/08/07 13:48:01;;;;;;;3.05;0.30;;;32.80;27.30;;;;;;6296250;28;20182;-78
2022/08/07 13:51:03;;;;;;;0.70;0.10;;;32.50;27.50;;;;;;6301864;28;20090;-77
2022/08/07 13:54:10;;;;;;;0.90;0.17;;;32.70;27.30;;;;;;6308392;28;20055;-78
2022/08/07 13:57:15;;;;;;;0.30;0.10;;;33.30;27.20;;;;;;6294895;28;20143;-77
2022/08/07 14:00:18;;;;;;;2.05;0.20;;;33.70;26.60;;;;;;6294649;28;20053;-78
2022/08/07 14:03:20;;;;;;;0.00;0.00;;;33.90;26.40;;;;;;6294949;28;20048;-77
2022/08/07 14:06:23;;;;;;;1.17;0.10;;;33.50;26.60;;;;;;6295801;28;20055;-78
2022/08/07 14:09:29;;;;;;;13.02;0.63;;;33.50;26.90;;;;;;6294866;28;20052;-78
2022/08/07 14:12:37;;;;;;;0.30;0.15;;;33.50;26.60;;;;;;6299757;28;20422;-78
2022/08/07 14:15:42;;;;;;;0.57;0.10;;;33.70;26.60;;;;;;6300072;28;20051;-77
2022/08/07 14:18:47;;;;;;;0.28;0.10;;;34.00;26.30;;;;;;6299807;28;20431;-77
2022/08/07 14:21:52;;;;;;;0.35;0.10;;;34.20;26.40;;;;;;6311389;28;20050;-78
2022/08/07 14:25:01;;;;;;;1.77;0.43;;;34.50;26.10;;;;;;6300081;28;20045;-78
2022/08/07 14:28:07;;;;;;;0.20;0.10;;;34.50;25.90;;;;;;6320546;28;20076;-78
2022/08/07 14:31:10;;;;;;;0.05;0.03;;;34.50;25.70;;;;;;6306557;28;20052;-77
2022/08/07 14:34:13;;;;;;;0.30;0.10;;;34.20;25.60;;;;;;6298857;28;20045;-77
2022/08/07 14:37:18;;;;;;;2.13;0.10;;;33.70;26.10;;;;;;6299879;28;20044;-78
2022/08/07 14:40:23;;;;;;;0.43;0.10;;;33.00;26.10;;;;;;6299871;28;20046;-77
2022/08/07 14:43:28;;;;;;;0.65;0.25;;;32.80;26.60;;;;;;6300000;28;20051;-77
2022/08/07 14:46:31;;;;;;;8.07;0.30;;;32.90;26.60;;;;;;6300118;28;20056;-77
2022/08/07 14:49:35;;;;;;;0.95;0.10;;;33.30;26.60;;;;;;6299033;28;20048;-77
2022/08/07 14:52:38;;;;;;;1.00;0.08;;;33.80;26.30;;;;;;6311817;28;20518;-77
2022/08/07 14:55:43;;;;;;;1.00;0.20;;;33.90;25.90;;;;;;6322728;28;20082;-77
2022/08/07 14:58:50;;;;;;;0.30;0.10;;;33.60;26.00;;;;;;6318689;28;20059;-77
2022/08/07 15:01:53;;;;;;;0.93;0.10;;;33.50;26.40;;;;;;6300803;28;20052;-77
2022/08/07 15:04:56;;;;;;;0.45;0.32;;;33.30;26.00;;;;;;6300054;28;20416;-77
2022/08/07 15:07:59;;;;;;;1.80;0.10;;;33.20;26.10;;;;;;6299290;28;20427;-77
2022/08/07 15:11:06;;;;;;;1.85;0.10;;;32.90;26.10;;;;;;6299281;28;20055;-77
2022/08/07 15:14:11;;;;;;;2.03;0.15;;;33.00;26.40;;;;;;6298847;28;20045;-77
2022/08/07 15:17:16;;;;;;;0.28;0.00;;;33.40;26.30;;;;;;6298700;28;20048;-77
2022/08/07 15:20:23;;;;;;;1.23;0.17;;;33.40;26.30;;;;;;6299515;28;20048;-77
2022/08/07 15:23:26;;;;;;;;;;;33.10;26.60;;;;;;6310641;28;20036;-77
2022/08/07 15:26:37;;;;;;;1.48;0.20;;;32.90;26.50;;;;;;6301993;28;20295;-77
2022/08/07 15:29:41;;;;;;;0.90;0.00;;;32.50;26.80;;;;;;6299327;28;20052;-77
2022/08/07 15:32:48;;;;;;;0.40;0.20;;;32.50;27.10;;;;;;6313727;28;20050;-77
2022/08/07 15:35:51;;;;;;;;;;;32.70;27.00;;;;;;6299114;28;20051;-77
2022/08/07 15:38:54;;;;;;;0.28;0.20;;;32.90;27.00;;;;;;6310192;28;20299;-77
2022/08/07 15:42:00;;;;;;;2.03;0.28;;;32.80;26.60;;;;;;6313623;28;20051;-77
2022/08/07 15:45:03;;;;;;;1.23;0.10;;;32.70;26.70;;;;;;6299338;28;20124;-78
2022/08/07 15:48:12;;;;;;;0.10;0.10;;;32.80;26.50;;;;;;6299815;28;20045;-78
2022/08/07 15:51:16;;;;;;;1.17;0.30;;;32.80;26.50;;;;;;6306650;28;20074;-78
2022/08/07 15:54:18;;;;;;;1.23;0.30;;;32.70;26.50;;;;;;6310618;28;20061;-78
2022/08/07 15:57:28;;;;;;;1.27;0.20;;;32.80;26.80;;;;;;6297604;28;20059;-78
2022/08/07 16:00:34;;;;;;;0.50;0.28;;;32.70;27.00;;;;;;6298555;28;20040;-78
2022/08/07 16:03:39;;;;;;;0.05;0.00;;;32.80;27.00;;;;;;6297721;28;20052;-78
2022/08/07 16:06:48;;;;;;;0.95;0.50;;;32.90;27.30;;;;;;6298012;28;20064;-78
2022/08/07 16:09:56;;;;;;;0.82;0.10;;;32.90;26.60;;;;;;6297270;28;20125;-78
2022/08/07 16:13:26;;;;;;;0.10;0.03;;;32.40;26.90;;;;;;6297283;28;20492;-77
2022/08/07 16:16:49;;;;;;;1.17;0.70;;;32.20;26.90;;;;;;6298652;28;20048;-79
2022/08/07 16:20:36;;;;;;;1.08;0.28;;;32.10;26.90;;;;;;6297560;28;20048;-79
2022/08/07 16:24:00;;;;;;;0.95;0.10;;;31.80;26.70;;;;;;6311603;28;20047;-77
2022/08/07 16:27:12;;;;;;;2.17;0.17;;;31.80;26.90;;;;;;6306056;28;20063;-78